LFPO 200500Z 20001KT CAVOK 12/11 Q1023 NOSIG

ElémentsDécodage
LFPO Station météo située sur l'aérodrome de PARIS Orly
200500Z émis le 20 du mois à 05h00 UTC
20001KT vent du 200°, 01 noeuds
CAVOK Ceiling And Visibility OK
- Visibilité de 10 Km ou plus
- Pas de nuage au-dessous de 1500m ou au-dessous de l'altitude minimale du secteur la plus élevée (si>1500m) et absence de CB
- pas de temps présent significatif
12/11 température 12°C, point de rosée 11°C
 soit une humidité relative de 94%
Q1023 la pression au niveau de la mer (QNH) est de 1023 hPa
NOSIG Pas de changement significatif prévu au cours des deux heures suivant l'heure de l'observation